sensor_id;sensor_type;location;lat;lon;timestamp;P1;durP1;ratioP1;P2;durP2;ratioP2
77978;SDS011;67169;50.268;8.694;2023-03-22T00:01:15;96.45;;;22.80;;
77978;SDS011;67169;50.268;8.694;2023-03-22T00:03:43;68.03;;;20.73;;
77978;SDS011;67169;50.268;8.694;2023-03-22T00:06:10;58.22;;;19.70;;
77978;SDS011;67169;50.268;8.694;2023-03-22T00:08:39;44.25;;;18.92;;
77978;SDS011;67169;50.268;8.694;2023-03-22T00:11:05;39.75;;;16.98;;
77978;SDS011;67169;50.268;8.694;2023-03-22T00:13:33;38.75;;;17.98;;
77978;SDS011;67169;50.268;8.694;2023-03-22T00:16:01;57.42;;;21.38;;
77978;SDS011;67169;50.268;8.694;2023-03-22T00:18:29;61.00;;;20.48;;
77978;SDS011;67169;50.268;8.694;2023-03-22T00:20:57;52.05;;;20.52;;
77978;SDS011;67169;50.268;8.694;2023-03-22T00:23:25;69.82;;;24.17;;
77978;SDS011;67169;50.268;8.694;2023-03-22T00:25:53;79.18;;;26.63;;
77978;SDS011;67169;50.268;8.694;2023-03-22T00:28:20;77.97;;;28.00;;
77978;SDS011;67169;50.268;8.694;2023-03-22T00:30:51;78.35;;;27.35;;
77978;SDS011;67169;50.268;8.694;2023-03-22T00:33:18;71.88;;;28.38;;
77978;SDS011;67169;50.268;8.694;2023-03-22T00:35:48;68.78;;;24.73;;
77978;SDS011;67169;50.268;8.694;2023-03-22T00:38:16;74.40;;;27.75;;
77978;SDS011;67169;50.268;8.694;2023-03-22T00:40:42;80.75;;;27.70;;
77978;SDS011;67169;50.268;8.694;2023-03-22T00:43:10;67.05;;;26.90;;
77978;SDS011;67169;50.268;8.694;2023-03-22T00:45:37;70.28;;;27.38;;
77978;SDS011;67169;50.268;8.694;2023-03-22T00:48:05;67.82;;;26.65;;
77978;SDS011;67169;50.268;8.694;2023-03-22T00:50:32;66.15;;;26.70;;
77978;SDS011;67169;50.268;8.694;2023-03-22T00:52:59;81.68;;;31.63;;
77978;SDS011;67169;50.268;8.694;2023-03-22T00:55:25;71.22;;;26.88;;
77978;SDS011;67169;50.268;8.694;2023-03-22T00:57:52;67.07;;;28.10;;
77978;SDS011;67169;50.268;8.694;2023-03-22T01:00:20;56.65;;;25.15;;
77978;SDS011;67169;50.268;8.694;2023-03-22T01:02:47;59.97;;;25.15;;
77978;SDS011;67169;50.268;8.694;2023-03-22T01:05:13;61.63;;;26.38;;
77978;SDS011;67169;50.268;8.694;2023-03-22T01:07:41;59.80;;;25.13;;
77978;SDS011;67169;50.268;8.694;2023-03-22T01:10:09;55.10;;;24.42;;
77978;SDS011;67169;50.268;8.694;2023-03-22T01:12:35;55.05;;;23.38;;
77978;SDS011;67169;50.268;8.694;2023-03-22T01:15:02;65.72;;;24.50;;
77978;SDS011;67169;50.268;8.694;2023-03-22T01:17:30;55.17;;;25.23;;
77978;SDS011;67169;50.268;8.694;2023-03-22T01:19:57;51.97;;;22.42;;
77978;SDS011;67169;50.268;8.694;2023-03-22T01:22:23;61.55;;;24.23;;
77978;SDS011;67169;50.268;8.694;2023-03-22T01:24:50;52.78;;;23.55;;
77978;SDS011;67169;50.268;8.694;2023-03-22T01:27:16;60.45;;;24.67;;
77978;SDS011;67169;50.268;8.694;2023-03-22T01:29:43;55.50;;;24.60;;
77978;SDS011;67169;50.268;8.694;2023-03-22T01:32:09;58.40;;;23.50;;
77978;SDS011;67169;50.268;8.694;2023-03-22T01:34:37;64.07;;;25.20;;
77978;SDS011;67169;50.268;8.694;2023-03-22T01:37:04;68.38;;;26.95;;
77978;SDS011;67169;50.268;8.694;2023-03-22T01:39:30;65.38;;;25.20;;
77978;SDS011;67169;50.268;8.694;2023-03-22T01:41:56;66.65;;;27.55;;
77978;SDS011;67169;50.268;8.694;2023-03-22T01:44:23;61.95;;;26.17;;
77978;SDS011;67169;50.268;8.694;2023-03-22T01:46:50;70.07;;;27.20;;
77978;SDS011;67169;50.268;8.694;2023-03-22T01:49:18;66.07;;;27.10;;
77978;SDS011;67169;50.268;8.694;2023-03-22T01:51:50;73.20;;;28.20;;
77978;SDS011;67169;50.268;8.694;2023-03-22T01:54:20;66.82;;;29.40;;
77978;SDS011;67169;50.268;8.694;2023-03-22T01:56:51;73.78;;;26.90;;
77978;SDS011;67169;50.268;8.694;2023-03-22T01:59:18;63.17;;;25.45;;
77978;SDS011;67169;50.268;8.694;2023-03-22T02:01:45;67.50;;;28.05;;
77978;SDS011;67169;50.268;8.694;2023-03-22T02:04:12;58.20;;;26.15;;
77978;SDS011;67169;50.268;8.694;2023-03-22T02:06:41;66.15;;;26.85;;
77978;SDS011;67169;50.268;8.694;2023-03-22T02:09:10;62.25;;;25.52;;
77978;SDS011;67169;50.268;8.694;2023-03-22T02:11:38;59.70;;;25.67;;
77978;SDS011;67169;50.268;8.694;2023-03-22T02:14:18;63.83;;;25.60;;
77978;SDS011;67169;50.268;8.694;2023-03-22T02:16:58;64.07;;;27.10;;
77978;SDS011;67169;50.268;8.694;2023-03-22T02:22:49;57.30;;;26.67;;
77978;SDS011;67169;50.268;8.694;2023-03-22T02:25:40;51.22;;;23.70;;
77978;SDS011;67169;50.268;8.694;2023-03-22T02:28:32;47.67;;;21.45;;
77978;SDS011;67169;50.268;8.694;2023-03-22T02:31:20;50.47;;;23.92;;
77978;SDS011;67169;50.268;8.694;2023-03-22T02:37:11;48.08;;;22.38;;
77978;SDS011;67169;50.268;8.694;2023-03-22T02:39:58;48.22;;;21.77;;
77978;SDS011;67169;50.268;8.694;2023-03-22T02:42:35;48.35;;;21.63;;
77978;SDS011;67169;50.268;8.694;2023-03-22T02:45:09;37.67;;;18.73;;
77978;SDS011;67169;50.268;8.694;2023-03-22T02:47:40;46.10;;;19.98;;
77978;SDS011;67169;50.268;8.694;2023-03-22T02:50:17;37.97;;;18.23;;
77978;SDS011;67169;50.268;8.694;2023-03-22T02:52:51;44.03;;;19.45;;
77978;SDS011;67169;50.268;8.694;2023-03-22T02:55:23;39.28;;;19.73;;
77978;SDS011;67169;50.268;8.694;2023-03-22T03:00:23;42.20;;;20.13;;
77978;SDS011;67169;50.268;8.694;2023-03-22T03:02:52;47.58;;;21.98;;
77978;SDS011;67169;50.268;8.694;2023-03-22T03:05:24;45.17;;;21.00;;
77978;SDS011;67169;50.268;8.694;2023-03-22T03:07:53;44.83;;;19.85;;
77978;SDS011;67169;50.268;8.694;2023-03-22T03:10:23;44.45;;;20.77;;
77978;SDS011;67169;50.268;8.694;2023-03-22T03:12:52;46.38;;;22.40;;
77978;SDS011;67169;50.268;8.694;2023-03-22T03:15:19;45.45;;;22.65;;
77978;SDS011;67169;50.268;8.694;2023-03-22T03:17:53;49.45;;;23.73;;
77978;SDS011;67169;50.268;8.694;2023-03-22T03:20:31;49.83;;;21.13;;
77978;SDS011;67169;50.268;8.694;2023-03-22T03:23:09;53.40;;;23.15;;
77978;SDS011;67169;50.268;8.694;2023-03-22T03:25:50;43.30;;;20.02;;
77978;SDS011;67169;50.268;8.694;2023-03-22T03:28:27;41.47;;;18.92;;
77978;SDS011;67169;50.268;8.694;2023-03-22T03:31:02;42.25;;;20.08;;
77978;SDS011;67169;50.268;8.694;2023-03-22T03:33:36;44.38;;;19.67;;
77978;SDS011;67169;50.268;8.694;2023-03-22T03:36:10;39.80;;;21.33;;
77978;SDS011;67169;50.268;8.694;2023-03-22T03:38:41;43.03;;;19.48;;
77978;SDS011;67169;50.268;8.694;2023-03-22T03:41:13;45.25;;;20.08;;
77978;SDS011;67169;50.268;8.694;2023-03-22T03:43:42;40.67;;;20.58;;
77978;SDS011;67169;50.268;8.694;2023-03-22T03:46:10;38.80;;;19.10;;
77978;SDS011;67169;50.268;8.694;2023-03-22T03:48:37;37.30;;;18.52;;
77978;SDS011;67169;50.268;8.694;2023-03-22T03:51:06;37.58;;;17.85;;
77978;SDS011;67169;50.268;8.694;2023-03-22T03:53:33;39.83;;;17.83;;
77978;SDS011;67169;50.268;8.694;2023-03-22T03:55:59;42.13;;;18.05;;
77978;SDS011;67169;50.268;8.694;2023-03-22T03:58:27;84.35;;;24.40;;
77978;SDS011;67169;50.268;8.694;2023-03-22T04:00:54;129.25;;;25.15;;
77978;SDS011;67169;50.268;8.694;2023-03-22T04:03:21;106.85;;;27.10;;
77978;SDS011;67169;50.268;8.694;2023-03-22T04:05:48;113.43;;;24.58;;
77978;SDS011;67169;50.268;8.694;2023-03-22T04:08:14;129.20;;;25.20;;
77978;SDS011;67169;50.268;8.694;2023-03-22T04:10:41;102.15;;;23.92;;
77978;SDS011;67169;50.268;8.694;2023-03-22T04:13:07;78.18;;;23.77;;
77978;SDS011;67169;50.268;8.694;2023-03-22T04:15:35;88.40;;;24.92;;
77978;SDS011;67169;50.268;8.694;2023-03-22T04:18:02;141.82;;;24.40;;
77978;SDS011;67169;50.268;8.694;2023-03-22T04:20:28;117.13;;;22.95;;
77978;SDS011;67169;50.268;8.694;2023-03-22T04:22:55;110.10;;;23.98;;
77978;SDS011;67169;50.268;8.694;2023-03-22T04:25:22;111.72;;;25.83;;
77978;SDS011;67169;50.268;8.694;2023-03-22T04:27:54;86.05;;;22.50;;
77978;SDS011;67169;50.268;8.694;2023-03-22T04:30:21;88.97;;;20.67;;
77978;SDS011;67169;50.268;8.694;2023-03-22T04:32:50;81.93;;;21.45;;
77978;SDS011;67169;50.268;8.694;2023-03-22T04:35:16;97.75;;;22.15;;
77978;SDS011;67169;50.268;8.694;2023-03-22T04:37:43;53.97;;;18.90;;
77978;SDS011;67169;50.268;8.694;2023-03-22T04:40:10;71.95;;;18.83;;
77978;SDS011;67169;50.268;8.694;2023-03-22T04:42:40;71.72;;;20.30;;
77978;SDS011;67169;50.268;8.694;2023-03-22T04:45:07;79.85;;;20.48;;
77978;SDS011;67169;50.268;8.694;2023-03-22T04:47:35;97.15;;;21.45;;
77978;SDS011;67169;50.268;8.694;2023-03-22T04:50:03;93.50;;;22.33;;
77978;SDS011;67169;50.268;8.694;2023-03-22T04:52:30;66.25;;;18.90;;
77978;SDS011;67169;50.268;8.694;2023-03-22T04:54:56;55.58;;;18.73;;
77978;SDS011;67169;50.268;8.694;2023-03-22T04:57:23;46.00;;;18.35;;
77978;SDS011;67169;50.268;8.694;2023-03-22T04:59:49;40.38;;;16.75;;
77978;SDS011;67169;50.268;8.694;2023-03-22T05:02:16;49.00;;;18.52;;
77978;SDS011;67169;50.268;8.694;2023-03-22T05:04:42;38.33;;;15.65;;
77978;SDS011;67169;50.268;8.694;2023-03-22T05:07:10;34.85;;;16.80;;
77978;SDS011;67169;50.268;8.694;2023-03-22T05:09:37;41.53;;;17.70;;
77978;SDS011;67169;50.268;8.694;2023-03-22T05:12:03;32.67;;;17.00;;
77978;SDS011;67169;50.268;8.694;2023-03-22T05:14:30;32.05;;;16.63;;
77978;SDS011;67169;50.268;8.694;2023-03-22T05:16:56;34.25;;;15.43;;
77978;SDS011;67169;50.268;8.694;2023-03-22T05:19:23;34.85;;;17.73;;
77978;SDS011;67169;50.268;8.694;2023-03-22T05:21:49;34.40;;;16.45;;
77978;SDS011;67169;50.268;8.694;2023-03-22T05:24:23;31.73;;;14.35;;
77978;SDS011;67169;50.268;8.694;2023-03-22T05:26:49;32.67;;;17.27;;
77978;SDS011;67169;50.268;8.694;2023-03-22T05:31:44;21.77;;;12.52;;
77978;SDS011;67169;50.268;8.694;2023-03-22T05:34:10;33.83;;;15.38;;
77978;SDS011;67169;50.268;8.694;2023-03-22T05:36:37;29.48;;;15.75;;
77978;SDS011;67169;50.268;8.694;2023-03-22T05:39:04;33.95;;;15.52;;
77978;SDS011;67169;50.268;8.694;2023-03-22T05:41:32;32.75;;;16.50;;
77978;SDS011;67169;50.268;8.694;2023-03-22T05:43:59;29.23;;;16.02;;
77978;SDS011;67169;50.268;8.694;2023-03-22T05:46:25;30.75;;;16.30;;
77978;SDS011;67169;50.268;8.694;2023-03-22T05:48:52;30.55;;;15.95;;
77978;SDS011;67169;50.268;8.694;2023-03-22T05:51:19;31.67;;;15.50;;
77978;SDS011;67169;50.268;8.694;2023-03-22T05:53:49;39.55;;;17.23;;
77978;SDS011;67169;50.268;8.694;2023-03-22T05:56:17;33.97;;;15.77;;
77978;SDS011;67169;50.268;8.694;2023-03-22T05:58:47;36.67;;;17.25;;
77978;SDS011;67169;50.268;8.694;2023-03-22T06:01:13;29.33;;;14.60;;
77978;SDS011;67169;50.268;8.694;2023-03-22T06:03:40;29.52;;;15.90;;
77978;SDS011;67169;50.268;8.694;2023-03-22T06:06:07;32.78;;;15.80;;
77978;SDS011;67169;50.268;8.694;2023-03-22T06:08:35;31.17;;;15.95;;
77978;SDS011;67169;50.268;8.694;2023-03-22T06:11:02;32.13;;;16.02;;
77978;SDS011;67169;50.268;8.694;2023-03-22T06:13:29;31.60;;;15.98;;
77978;SDS011;67169;50.268;8.694;2023-03-22T06:15:59;32.53;;;15.43;;
77978;SDS011;67169;50.268;8.694;2023-03-22T06:18:26;35.70;;;16.02;;
77978;SDS011;67169;50.268;8.694;2023-03-22T06:20:52;33.38;;;15.45;;
77978;SDS011;67169;50.268;8.694;2023-03-22T06:23:19;26.45;;;14.27;;
77978;SDS011;67169;50.268;8.694;2023-03-22T06:25:45;25.83;;;12.85;;
77978;SDS011;67169;50.268;8.694;2023-03-22T06:28:12;28.70;;;14.32;;
77978;SDS011;67169;50.268;8.694;2023-03-22T06:30:38;28.83;;;15.00;;
77978;SDS011;67169;50.268;8.694;2023-03-22T06:33:06;26.25;;;15.45;;
77978;SDS011;67169;50.268;8.694;2023-03-22T06:35:33;33.10;;;15.50;;
77978;SDS011;67169;50.268;8.694;2023-03-22T06:38:00;27.48;;;14.80;;
77978;SDS011;67169;50.268;8.694;2023-03-22T06:40:26;26.40;;;14.77;;
77978;SDS011;67169;50.268;8.694;2023-03-22T06:42:53;24.77;;;14.20;;
77978;SDS011;67169;50.268;8.694;2023-03-22T06:45:19;26.98;;;14.40;;
77978;SDS011;67169;50.268;8.694;2023-03-22T06:47:46;26.80;;;14.73;;
77978;SDS011;67169;50.268;8.694;2023-03-22T06:52:42;21.67;;;13.35;;
77978;SDS011;67169;50.268;8.694;2023-03-22T06:55:08;25.42;;;12.77;;
77978;SDS011;67169;50.268;8.694;2023-03-22T06:57:35;21.55;;;12.73;;
77978;SDS011;67169;50.268;8.694;2023-03-22T07:00:01;23.80;;;12.57;;
77978;SDS011;67169;50.268;8.694;2023-03-22T07:02:29;22.85;;;12.75;;
77978;SDS011;67169;50.268;8.694;2023-03-22T07:04:55;20.42;;;12.02;;
77978;SDS011;67169;50.268;8.694;2023-03-22T07:07:23;25.95;;;13.25;;
77978;SDS011;67169;50.268;8.694;2023-03-22T07:09:49;24.27;;;13.05;;
77978;SDS011;67169;50.268;8.694;2023-03-22T07:12:17;26.70;;;12.77;;
77978;SDS011;67169;50.268;8.694;2023-03-22T07:14:43;20.85;;;12.80;;
77978;SDS011;67169;50.268;8.694;2023-03-22T07:17:10;23.38;;;13.57;;
77978;SDS011;67169;50.268;8.694;2023-03-22T07:19:38;23.15;;;13.45;;
77978;SDS011;67169;50.268;8.694;2023-03-22T07:22:05;22.20;;;13.00;;
77978;SDS011;67169;50.268;8.694;2023-03-22T07:24:33;21.38;;;12.88;;
77978;SDS011;67169;50.268;8.694;2023-03-22T07:27:00;21.70;;;12.80;;
77978;SDS011;67169;50.268;8.694;2023-03-22T07:29:26;20.23;;;12.52;;
77978;SDS011;67169;50.268;8.694;2023-03-22T07:31:53;20.20;;;11.45;;
77978;SDS011;67169;50.268;8.694;2023-03-22T07:34:19;19.13;;;11.13;;
77978;SDS011;67169;50.268;8.694;2023-03-22T07:36:45;16.27;;;9.75;;
77978;SDS011;67169;50.268;8.694;2023-03-22T07:39:12;15.45;;;9.15;;
77978;SDS011;67169;50.268;8.694;2023-03-22T07:41:40;12.10;;;8.15;;
77978;SDS011;67169;50.268;8.694;2023-03-22T07:44:06;9.90;;;7.60;;
77978;SDS011;67169;50.268;8.694;2023-03-22T07:46:33;12.23;;;7.50;;
77978;SDS011;67169;50.268;8.694;2023-03-22T07:48:59;14.60;;;8.27;;
77978;SDS011;67169;50.268;8.694;2023-03-22T07:51:26;10.93;;;7.78;;
77978;SDS011;67169;50.268;8.694;2023-03-22T07:53:53;12.88;;;7.65;;
77978;SDS011;67169;50.268;8.694;2023-03-22T07:56:20;9.68;;;6.75;;
77978;SDS011;67169;50.268;8.694;2023-03-22T07:58:48;11.23;;;7.10;;
77978;SDS011;67169;50.268;8.694;2023-03-22T08:01:14;8.20;;;5.72;;
77978;SDS011;67169;50.268;8.694;2023-03-22T08:03:41;8.48;;;5.78;;
77978;SDS011;67169;50.268;8.694;2023-03-22T08:06:07;7.47;;;6.07;;
77978;SDS011;67169;50.268;8.694;2023-03-22T08:08:36;12.00;;;5.88;;
77978;SDS011;67169;50.268;8.694;2023-03-22T08:11:03;8.25;;;5.97;;
77978;SDS011;67169;50.268;8.694;2023-03-22T08:13:30;8.68;;;6.35;;
77978;SDS011;67169;50.268;8.694;2023-03-22T08:15:59;8.25;;;6.00;;
77978;SDS011;67169;50.268;8.694;2023-03-22T08:20:52;9.43;;;6.28;;
77978;SDS011;67169;50.268;8.694;2023-03-22T08:23:20;8.85;;;5.70;;
77978;SDS011;67169;50.268;8.694;2023-03-22T08:25:47;9.32;;;5.80;;
77978;SDS011;67169;50.268;8.694;2023-03-22T08:28:14;8.63;;;6.10;;
77978;SDS011;67169;50.268;8.694;2023-03-22T08:30:41;8.40;;;4.93;;
77978;SDS011;67169;50.268;8.694;2023-03-22T08:33:10;10.40;;;6.10;;
77978;SDS011;67169;50.268;8.694;2023-03-22T08:35:36;7.75;;;5.32;;
77978;SDS011;67169;50.268;8.694;2023-03-22T08:38:03;8.27;;;5.63;;
77978;SDS011;67169;50.268;8.694;2023-03-22T08:40:29;9.00;;;6.13;;
77978;SDS011;67169;50.268;8.694;2023-03-22T08:42:56;8.80;;;5.32;;
77978;SDS011;67169;50.268;8.694;2023-03-22T08:45:23;9.30;;;5.43;;
77978;SDS011;67169;50.268;8.694;2023-03-22T08:47:50;12.52;;;6.10;;
77978;SDS011;67169;50.268;8.694;2023-03-22T08:50:18;6.47;;;4.75;;
77978;SDS011;67169;50.268;8.694;2023-03-22T08:55:11;8.45;;;5.35;;
77978;SDS011;67169;50.268;8.694;2023-03-22T08:57:38;6.15;;;3.75;;
77978;SDS011;67169;50.268;8.694;2023-03-22T09:00:05;4.63;;;3.38;;
77978;SDS011;67169;50.268;8.694;2023-03-22T09:02:34;7.57;;;4.55;;
77978;SDS011;67169;50.268;8.694;2023-03-22T09:05:01;5.60;;;3.42;;
77978;SDS011;67169;50.268;8.694;2023-03-22T09:07:29;7.43;;;4.00;;
77978;SDS011;67169;50.268;8.694;2023-03-22T09:12:24;6.88;;;3.78;;
77978;SDS011;67169;50.268;8.694;2023-03-22T09:14:51;8.02;;;3.65;;
77978;SDS011;67169;50.268;8.694;2023-03-22T09:17:18;7.25;;;3.60;;
77978;SDS011;67169;50.268;8.694;2023-03-22T09:19:44;7.03;;;3.92;;
77978;SDS011;67169;50.268;8.694;2023-03-22T09:22:11;5.90;;;3.53;;
77978;SDS011;67169;50.268;8.694;2023-03-22T09:24:39;4.53;;;3.58;;
77978;SDS011;67169;50.268;8.694;2023-03-22T09:29:32;4.97;;;3.65;;
77978;SDS011;67169;50.268;8.694;2023-03-22T09:31:59;6.32;;;3.67;;
77978;SDS011;67169;50.268;8.694;2023-03-22T09:34:25;6.88;;;3.33;;
77978;SDS011;67169;50.268;8.694;2023-03-22T09:36:52;5.47;;;3.55;;
77978;SDS011;67169;50.268;8.694;2023-03-22T09:39:18;5.82;;;3.55;;
77978;SDS011;67169;50.268;8.694;2023-03-22T09:41:48;3.33;;;2.35;;
77978;SDS011;67169;50.268;8.694;2023-03-22T09:44:20;4.65;;;2.97;;
77978;SDS011;67169;50.268;8.694;2023-03-22T09:46:53;3.92;;;2.97;;
77978;SDS011;67169;50.268;8.694;2023-03-22T09:49:24;5.65;;;2.65;;
77978;SDS011;67169;50.268;8.694;2023-03-22T09:51:55;4.78;;;2.55;;
77978;SDS011;67169;50.268;8.694;2023-03-22T09:54:25;2.65;;;2.40;;
77978;SDS011;67169;50.268;8.694;2023-03-22T09:56:59;4.68;;;2.17;;
77978;SDS011;67169;50.268;8.694;2023-03-22T09:59:31;4.25;;;2.00;;
77978;SDS011;67169;50.268;8.694;2023-03-22T10:02:12;4.53;;;2.63;;
77978;SDS011;67169;50.268;8.694;2023-03-22T10:04:57;4.10;;;2.40;;
77978;SDS011;67169;50.268;8.694;2023-03-22T10:07:37;6.03;;;2.33;;
77978;SDS011;67169;50.268;8.694;2023-03-22T10:10:19;5.10;;;2.33;;
77978;SDS011;67169;50.268;8.694;2023-03-22T10:12:51;3.00;;;2.13;;
77978;SDS011;67169;50.268;8.694;2023-03-22T10:15:25;3.53;;;1.52;;
77978;SDS011;67169;50.268;8.694;2023-03-22T10:17:57;4.32;;;2.25;;
77978;SDS011;67169;50.268;8.694;2023-03-22T10:20:28;2.50;;;1.92;;
77978;SDS011;67169;50.268;8.694;2023-03-22T10:23:01;4.35;;;2.28;;
77978;SDS011;67169;50.268;8.694;2023-03-22T10:25:32;2.78;;;1.73;;
77978;SDS011;67169;50.268;8.694;2023-03-22T10:28:05;3.30;;;1.30;;
77978;SDS011;67169;50.268;8.694;2023-03-22T10:30:39;2.78;;;1.70;;
77978;SDS011;67169;50.268;8.694;2023-03-22T10:33:11;3.88;;;1.60;;
77978;SDS011;67169;50.268;8.694;2023-03-22T10:35:39;3.90;;;1.58;;
77978;SDS011;67169;50.268;8.694;2023-03-22T10:38:11;2.58;;;1.45;;
77978;SDS011;67169;50.268;8.694;2023-03-22T10:40:44;3.83;;;1.50;;
77978;SDS011;67169;50.268;8.694;2023-03-22T10:43:16;1.95;;;1.27;;
77978;SDS011;67169;50.268;8.694;2023-03-22T10:45:46;4.65;;;1.90;;
77978;SDS011;67169;50.268;8.694;2023-03-22T10:48:15;2.28;;;1.40;;
77978;SDS011;67169;50.268;8.694;2023-03-22T10:50:49;1.63;;;1.23;;
77978;SDS011;67169;50.268;8.694;2023-03-22T10:53:18;3.83;;;1.83;;
77978;SDS011;67169;50.268;8.694;2023-03-22T10:55:52;1.88;;;1.50;;
77978;SDS011;67169;50.268;8.694;2023-03-22T10:58:21;2.13;;;1.45;;
77978;SDS011;67169;50.268;8.694;2023-03-22T11:00:53;3.00;;;1.60;;
77978;SDS011;67169;50.268;8.694;2023-03-22T11:03:24;3.17;;;1.50;;
77978;SDS011;67169;50.268;8.694;2023-03-22T11:06:04;2.80;;;2.15;;
77978;SDS011;67169;50.268;8.694;2023-03-22T11:08:37;2.63;;;1.58;;
77978;SDS011;67169;50.268;8.694;2023-03-22T11:11:04;2.72;;;1.40;;
77978;SDS011;67169;50.268;8.694;2023-03-22T11:16:05;2.85;;;1.92;;
77978;SDS011;67169;50.268;8.694;2023-03-22T11:18:32;3.40;;;1.38;;
77978;SDS011;67169;50.268;8.694;2023-03-22T11:21:02;3.72;;;1.67;;
77978;SDS011;67169;50.268;8.694;2023-03-22T11:23:32;2.78;;;1.55;;
77978;SDS011;67169;50.268;8.694;2023-03-22T11:26:03;2.00;;;1.20;;
77978;SDS011;67169;50.268;8.694;2023-03-22T11:28:33;3.90;;;1.38;;
77978;SDS011;67169;50.268;8.694;2023-03-22T11:31:04;1.55;;;1.33;;
77978;SDS011;67169;50.268;8.694;2023-03-22T11:33:33;3.10;;;0.90;;
77978;SDS011;67169;50.268;8.694;2023-03-22T11:36:00;2.70;;;1.17;;
77978;SDS011;67169;50.268;8.694;2023-03-22T11:38:30;1.45;;;0.90;;
77978;SDS011;67169;50.268;8.694;2023-03-22T11:41:02;1.65;;;1.02;;
77978;SDS011;67169;50.268;8.694;2023-03-22T11:43:33;1.10;;;0.77;;
77978;SDS011;67169;50.268;8.694;2023-03-22T11:46:03;4.80;;;1.30;;
77978;SDS011;67169;50.268;8.694;2023-03-22T11:48:32;2.75;;;0.80;;
77978;SDS011;67169;50.268;8.694;2023-03-22T11:51:08;1.10;;;0.70;;
77978;SDS011;67169;50.268;8.694;2023-03-22T11:53:37;2.00;;;0.98;;
77978;SDS011;67169;50.268;8.694;2023-03-22T11:56:06;1.45;;;1.10;;
77978;SDS011;67169;50.268;8.694;2023-03-22T11:58:53;2.35;;;1.10;;
77978;SDS011;67169;50.268;8.694;2023-03-22T12:01:29;2.15;;;1.10;;
77978;SDS011;67169;50.268;8.694;2023-03-22T12:04:00;1.63;;;0.70;;
77978;SDS011;67169;50.268;8.694;2023-03-22T12:06:31;1.15;;;0.82;;
77978;SDS011;67169;50.268;8.694;2023-03-22T12:09:00;1.35;;;0.90;;
77978;SDS011;67169;50.268;8.694;2023-03-22T12:11:32;1.88;;;0.77;;
77978;SDS011;67169;50.268;8.694;2023-03-22T12:14:03;1.27;;;0.93;;
77978;SDS011;67169;50.268;8.694;2023-03-22T12:16:37;0.93;;;0.82;;
77978;SDS011;67169;50.268;8.694;2023-03-22T12:19:15;1.02;;;0.75;;
77978;SDS011;67169;50.268;8.694;2023-03-22T12:21:48;2.13;;;1.08;;
77978;SDS011;67169;50.268;8.694;2023-03-22T12:24:21;0.68;;;0.50;;
77978;SDS011;67169;50.268;8.694;2023-03-22T12:26:51;1.92;;;1.20;;
77978;SDS011;67169;50.268;8.694;2023-03-22T12:29:21;2.25;;;0.98;;
77978;SDS011;67169;50.268;8.694;2023-03-22T12:31:51;1.55;;;0.90;;
77978;SDS011;67169;50.268;8.694;2023-03-22T12:34:27;0.85;;;0.77;;
77978;SDS011;67169;50.268;8.694;2023-03-22T12:37:01;1.33;;;1.10;;
77978;SDS011;67169;50.268;8.694;2023-03-22T12:39:32;0.70;;;0.70;;
77978;SDS011;67169;50.268;8.694;2023-03-22T12:42:04;0.88;;;0.70;;
77978;SDS011;67169;50.268;8.694;2023-03-22T12:44:39;1.45;;;0.70;;
77978;SDS011;67169;50.268;8.694;2023-03-22T12:47:13;1.65;;;0.80;;
77978;SDS011;67169;50.268;8.694;2023-03-22T12:49:46;1.27;;;0.63;;
77978;SDS011;67169;50.268;8.694;2023-03-22T12:52:18;1.50;;;0.80;;
77978;SDS011;67169;50.268;8.694;2023-03-22T12:54:48;0.90;;;0.60;;
77978;SDS011;67169;50.268;8.694;2023-03-22T12:57:16;1.52;;;1.08;;
77978;SDS011;67169;50.268;8.694;2023-03-22T12:59:44;0.80;;;0.80;;
77978;SDS011;67169;50.268;8.694;2023-03-22T13:02:15;1.27;;;0.70;;
77978;SDS011;67169;50.268;8.694;2023-03-22T13:04:49;1.30;;;0.77;;
77978;SDS011;67169;50.268;8.694;2023-03-22T13:07:35;2.05;;;0.90;;
77978;SDS011;67169;50.268;8.694;2023-03-22T13:13:09;1.35;;;0.60;;
77978;SDS011;67169;50.268;8.694;2023-03-22T13:15:39;3.22;;;0.70;;
77978;SDS011;67169;50.268;8.694;2023-03-22T13:18:29;1.27;;;0.70;;
77978;SDS011;67169;50.268;8.694;2023-03-22T13:21:12;0.75;;;0.50;;
77978;SDS011;67169;50.268;8.694;2023-03-22T13:23:53;1.85;;;0.70;;
77978;SDS011;67169;50.268;8.694;2023-03-22T13:26:26;2.20;;;0.80;;
77978;SDS011;67169;50.268;8.694;2023-03-22T13:28:58;0.75;;;0.50;;
77978;SDS011;67169;50.268;8.694;2023-03-22T13:31:33;0.60;;;0.60;;
77978;SDS011;67169;50.268;8.694;2023-03-22T13:34:05;0.93;;;0.70;;
77978;SDS011;67169;50.268;8.694;2023-03-22T13:36:38;1.70;;;0.80;;
77978;SDS011;67169;50.268;8.694;2023-03-22T13:39:07;1.40;;;0.70;;
77978;SDS011;67169;50.268;8.694;2023-03-22T13:41:36;2.20;;;0.73;;
77978;SDS011;67169;50.268;8.694;2023-03-22T13:44:17;0.70;;;0.60;;
77978;SDS011;67169;50.268;8.694;2023-03-22T13:46:48;1.67;;;0.80;;
77978;SDS011;67169;50.268;8.694;2023-03-22T13:49:39;0.80;;;0.60;;
77978;SDS011;67169;50.268;8.694;2023-03-22T13:52:24;1.10;;;0.65;;
77978;SDS011;67169;50.268;8.694;2023-03-22T13:54:54;2.42;;;0.93;;
77978;SDS011;67169;50.268;8.694;2023-03-22T14:00:33;0.93;;;0.55;;
77978;SDS011;67169;50.268;8.694;2023-03-22T14:03:05;1.98;;;0.70;;
77978;SDS011;67169;50.268;8.694;2023-03-22T14:05:39;1.08;;;0.60;;
77978;SDS011;67169;50.268;8.694;2023-03-22T14:08:14;0.80;;;0.60;;
77978;SDS011;67169;50.268;8.694;2023-03-22T14:10:47;1.40;;;0.73;;
77978;SDS011;67169;50.268;8.694;2023-03-22T14:13:18;1.38;;;0.57;;
77978;SDS011;67169;50.268;8.694;2023-03-22T14:15:52;0.98;;;0.90;;
77978;SDS011;67169;50.268;8.694;2023-03-22T14:18:22;1.20;;;0.80;;
77978;SDS011;67169;50.268;8.694;2023-03-22T14:20:53;0.57;;;0.57;;
77978;SDS011;67169;50.268;8.694;2023-03-22T14:23:23;1.10;;;1.00;;
77978;SDS011;67169;50.268;8.694;2023-03-22T14:25:51;2.45;;;0.70;;
77978;SDS011;67169;50.268;8.694;2023-03-22T14:28:30;1.00;;;0.80;;
77978;SDS011;67169;50.268;8.694;2023-03-22T14:30:59;0.65;;;0.50;;
77978;SDS011;67169;50.268;8.694;2023-03-22T14:33:26;1.23;;;0.60;;
77978;SDS011;67169;50.268;8.694;2023-03-22T14:35:56;0.63;;;0.60;;
77978;SDS011;67169;50.268;8.694;2023-03-22T14:38:26;1.15;;;0.70;;
77978;SDS011;67169;50.268;8.694;2023-03-22T14:41:04;2.92;;;0.75;;
77978;SDS011;67169;50.268;8.694;2023-03-22T14:43:32;2.58;;;0.52;;
77978;SDS011;67169;50.268;8.694;2023-03-22T14:46:03;1.35;;;0.70;;
77978;SDS011;67169;50.268;8.694;2023-03-22T14:51:10;0.75;;;0.50;;
77978;SDS011;67169;50.268;8.694;2023-03-22T14:53:48;1.15;;;0.65;;
77978;SDS011;67169;50.268;8.694;2023-03-22T14:56:18;0.82;;;0.50;;
77978;SDS011;67169;50.268;8.694;2023-03-22T14:58:52;1.20;;;0.50;;
77978;SDS011;67169;50.268;8.694;2023-03-22T15:01:29;1.15;;;0.60;;
77978;SDS011;67169;50.268;8.694;2023-03-22T15:04:01;1.33;;;0.50;;
77978;SDS011;67169;50.268;8.694;2023-03-22T15:06:32;1.38;;;0.73;;
77978;SDS011;67169;50.268;8.694;2023-03-22T15:09:11;0.85;;;0.65;;
77978;SDS011;67169;50.268;8.694;2023-03-22T15:11:41;1.33;;;0.65;;
77978;SDS011;67169;50.268;8.694;2023-03-22T15:16:36;1.45;;;0.80;;
77978;SDS011;67169;50.268;8.694;2023-03-22T15:19:10;1.85;;;0.70;;
77978;SDS011;67169;50.268;8.694;2023-03-22T15:21:41;1.63;;;0.60;;
77978;SDS011;67169;50.268;8.694;2023-03-22T15:24:27;2.28;;;0.70;;
77978;SDS011;67169;50.268;8.694;2023-03-22T15:26:55;1.23;;;0.57;;